sensor_id;sensor_type;location;lat;lon;timestamp;temperature;humidity
21244;DHT22;10780;50.942;4.028;2022-11-20T00:01:19;5.30;99.90
21244;DHT22;10780;50.942;4.028;2022-11-20T00:03:46;5.20;99.90
21244;DHT22;10780;50.942;4.028;2022-11-20T00:06:14;5.20;99.90
21244;DHT22;10780;50.942;4.028;2022-11-20T00:08:40;5.20;99.90
21244;DHT22;10780;50.942;4.028;2022-11-20T00:11:06;5.20;99.90
21244;DHT22;10780;50.942;4.028;2022-11-20T00:13:33;5.20;99.90
21244;DHT22;10780;50.942;4.028;2022-11-20T00:16:00;5.30;99.90
21244;DHT22;10780;50.942;4.028;2022-11-20T00:18:26;5.40;99.90
21244;DHT22;10780;50.942;4.028;2022-11-20T00:20:52;5.50;99.90
21244;DHT22;10780;50.942;4.028;2022-11-20T00:23:18;5.50;99.90
21244;DHT22;10780;50.942;4.028;2022-11-20T00:25:44;5.70;99.90
21244;DHT22;10780;50.942;4.028;2022-11-20T00:28:09;5.70;99.90
21244;DHT22;10780;50.942;4.028;2022-11-20T00:30:35;5.60;99.90
21244;DHT22;10780;50.942;4.028;2022-11-20T00:33:00;5.50;99.90
21244;DHT22;10780;50.942;4.028;2022-11-20T00:35:26;5.30;99.90
21244;DHT22;10780;50.942;4.028;2022-11-20T00:37:52;5.40;99.90
21244;DHT22;10780;50.942;4.028;2022-11-20T00:40:17;5.40;99.90
21244;DHT22;10780;50.942;4.028;2022-11-20T00:42:43;5.50;99.90
21244;DHT22;10780;50.942;4.028;2022-11-20T00:45:08;5.40;99.90
21244;DHT22;10780;50.942;4.028;2022-11-20T00:47:34;5.50;99.90
21244;DHT22;10780;50.942;4.028;2022-11-20T00:49:59;5.30;99.90
21244;DHT22;10780;50.942;4.028;2022-11-20T00:52:25;5.30;99.90
21244;DHT22;10780;50.942;4.028;2022-11-20T00:54:51;5.40;99.90
21244;DHT22;10780;50.942;4.028;2022-11-20T00:57:16;5.40;99.90
21244;DHT22;10780;50.942;4.028;2022-11-20T00:59:42;5.40;99.90
21244;DHT22;10780;50.942;4.028;2022-11-20T01:02:07;5.60;99.90
21244;DHT22;10780;50.942;4.028;2022-11-20T01:04:33;5.60;99.90
21244;DHT22;10780;50.942;4.028;2022-11-20T01:06:58;5.60;99.90
21244;DHT22;10780;50.942;4.028;2022-11-20T01:09:24;5.70;99.90
21244;DHT22;10780;50.942;4.028;2022-11-20T01:11:49;5.70;99.90
21244;DHT22;10780;50.942;4.028;2022-11-20T01:14:19;5.60;99.90
21244;DHT22;10780;50.942;4.028;2022-11-20T01:16:48;5.50;99.90
21244;DHT22;10780;50.942;4.028;2022-11-20T01:19:16;5.50;99.90
21244;DHT22;10780;50.942;4.028;2022-11-20T01:21:43;5.60;99.90
21244;DHT22;10780;50.942;4.028;2022-11-20T01:24:14;5.80;99.90
21244;DHT22;10780;50.942;4.028;2022-11-20T01:26:42;5.80;99.90
21244;DHT22;10780;50.942;4.028;2022-11-20T01:29:15;5.80;99.90
21244;DHT22;10780;50.942;4.028;2022-11-20T01:31:41;5.60;99.90
21244;DHT22;10780;50.942;4.028;2022-11-20T01:34:10;5.60;99.90
21244;DHT22;10780;50.942;4.028;2022-11-20T01:36:37;5.70;99.90
21244;DHT22;10780;50.942;4.028;2022-11-20T01:39:05;5.70;99.90
21244;DHT22;10780;50.942;4.028;2022-11-20T01:41:33;5.40;99.90
21244;DHT22;10780;50.942;4.028;2022-11-20T01:44:20;5.50;99.90
21244;DHT22;10780;50.942;4.028;2022-11-20T01:46:59;5.60;99.90
21244;DHT22;10780;50.942;4.028;2022-11-20T01:49:39;5.60;99.90
21244;DHT22;10780;50.942;4.028;2022-11-20T01:52:17;5.80;99.90
21244;DHT22;10780;50.942;4.028;2022-11-20T01:54:51;6.10;99.90
21244;DHT22;10780;50.942;4.028;2022-11-20T01:57:18;6.20;99.90
21244;DHT22;10780;50.942;4.028;2022-11-20T01:59:50;6.20;99.90
21244;DHT22;10780;50.942;4.028;2022-11-20T02:02:18;6.20;99.90
21244;DHT22;10780;50.942;4.028;2022-11-20T02:04:44;6.10;99.90
21244;DHT22;10780;50.942;4.028;2022-11-20T02:07:10;6.20;99.90
21244;DHT22;10780;50.942;4.028;2022-11-20T02:09:36;6.30;99.90
21244;DHT22;10780;50.942;4.028;2022-11-20T02:12:03;6.20;99.90
21244;DHT22;10780;50.942;4.028;2022-11-20T02:14:29;6.10;99.90
21244;DHT22;10780;50.942;4.028;2022-11-20T02:16:55;6.20;99.90
21244;DHT22;10780;50.942;4.028;2022-11-20T02:19:27;6.20;99.90
21244;DHT22;10780;50.942;4.028;2022-11-20T02:24:31;6.30;99.90
21244;DHT22;10780;50.942;4.028;2022-11-20T02:27:09;6.30;99.90
21244;DHT22;10780;50.942;4.028;2022-11-20T02:30:01;6.20;99.90
21244;DHT22;10780;50.942;4.028;2022-11-20T02:32:32;6.10;99.90
21244;DHT22;10780;50.942;4.028;2022-11-20T02:35:05;6.10;99.90
21244;DHT22;10780;50.942;4.028;2022-11-20T02:37:35;6.20;99.90
21244;DHT22;10780;50.942;4.028;2022-11-20T02:40:01;6.20;99.90
21244;DHT22;10780;50.942;4.028;2022-11-20T02:42:27;6.30;99.90
21244;DHT22;10780;50.942;4.028;2022-11-20T02:44:52;6.30;99.90
21244;DHT22;10780;50.942;4.028;2022-11-20T02:47:18;6.40;99.90
21244;DHT22;10780;50.942;4.028;2022-11-20T02:49:44;6.50;99.90
21244;DHT22;10780;50.942;4.028;2022-11-20T02:52:09;6.70;99.90
21244;DHT22;10780;50.942;4.028;2022-11-20T02:54:35;6.90;99.90
21244;DHT22;10780;50.942;4.028;2022-11-20T02:57:00;7.00;99.90
21244;DHT22;10780;50.942;4.028;2022-11-20T02:59:26;6.90;99.90
21244;DHT22;10780;50.942;4.028;2022-11-20T03:01:51;6.90;99.90
21244;DHT22;10780;50.942;4.028;2022-11-20T03:04:17;6.80;99.90
21244;DHT22;10780;50.942;4.028;2022-11-20T03:06:42;6.80;99.90
21244;DHT22;10780;50.942;4.028;2022-11-20T03:09:08;6.80;99.90
21244;DHT22;10780;50.942;4.028;2022-11-20T03:11:34;6.70;99.90
21244;DHT22;10780;50.942;4.028;2022-11-20T03:14:06;6.60;99.90
21244;DHT22;10780;50.942;4.028;2022-11-20T03:16:32;6.60;99.90
21244;DHT22;10780;50.942;4.028;2022-11-20T03:18:58;6.60;99.90
21244;DHT22;10780;50.942;4.028;2022-11-20T03:21:24;6.60;99.90
21244;DHT22;10780;50.942;4.028;2022-11-20T03:23:50;6.60;99.90
21244;DHT22;10780;50.942;4.028;2022-11-20T03:26:18;6.60;99.90
21244;DHT22;10780;50.942;4.028;2022-11-20T03:28:50;6.90;99.90
21244;DHT22;10780;50.942;4.028;2022-11-20T03:31:17;6.80;99.90
21244;DHT22;10780;50.942;4.028;2022-11-20T03:33:43;6.80;99.90
21244;DHT22;10780;50.942;4.028;2022-11-20T03:36:12;6.80;99.90
21244;DHT22;10780;50.942;4.028;2022-11-20T03:38:38;6.80;99.90
21244;DHT22;10780;50.942;4.028;2022-11-20T03:41:09;6.70;99.90
21244;DHT22;10780;50.942;4.028;2022-11-20T03:43:35;6.60;99.90
21244;DHT22;10780;50.942;4.028;2022-11-20T03:46:01;6.70;99.90
21244;DHT22;10780;50.942;4.028;2022-11-20T03:48:28;6.60;99.90
21244;DHT22;10780;50.942;4.028;2022-11-20T03:51:16;6.60;99.90
21244;DHT22;10780;50.942;4.028;2022-11-20T03:53:44;6.70;99.90
21244;DHT22;10780;50.942;4.028;2022-11-20T03:56:11;6.80;99.90
21244;DHT22;10780;50.942;4.028;2022-11-20T03:58:38;6.80;99.90
21244;DHT22;10780;50.942;4.028;2022-11-20T04:01:09;7.00;99.90
21244;DHT22;10780;50.942;4.028;2022-11-20T04:03:36;6.90;99.90
21244;DHT22;10780;50.942;4.028;2022-11-20T04:06:03;6.80;99.90
21244;DHT22;10780;50.942;4.028;2022-11-20T04:08:30;6.80;99.90
21244;DHT22;10780;50.942;4.028;2022-11-20T04:10:56;6.70;99.90
21244;DHT22;10780;50.942;4.028;2022-11-20T04:13:21;6.80;99.90
21244;DHT22;10780;50.942;4.028;2022-11-20T04:15:47;6.80;99.90
21244;DHT22;10780;50.942;4.028;2022-11-20T04:18:12;6.70;99.90
21244;DHT22;10780;50.942;4.028;2022-11-20T04:20:38;6.70;99.90
21244;DHT22;10780;50.942;4.028;2022-11-20T04:23:04;6.70;99.90
21244;DHT22;10780;50.942;4.028;2022-11-20T04:25:29;6.70;99.90
21244;DHT22;10780;50.942;4.028;2022-11-20T04:27:55;6.60;99.90
21244;DHT22;10780;50.942;4.028;2022-11-20T04:30:20;6.70;99.90
21244;DHT22;10780;50.942;4.028;2022-11-20T04:32:46;6.70;99.90
21244;DHT22;10780;50.942;4.028;2022-11-20T04:35:11;6.70;99.90
21244;DHT22;10780;50.942;4.028;2022-11-20T04:37:37;6.80;99.90
21244;DHT22;10780;50.942;4.028;2022-11-20T04:40:03;6.70;99.90
21244;DHT22;10780;50.942;4.028;2022-11-20T04:42:28;6.60;99.90
21244;DHT22;10780;50.942;4.028;2022-11-20T04:44:54;6.70;99.90
21244;DHT22;10780;50.942;4.028;2022-11-20T04:47:21;6.90;99.90
21244;DHT22;10780;50.942;4.028;2022-11-20T04:49:46;6.90;99.90
21244;DHT22;10780;50.942;4.028;2022-11-20T04:52:12;6.90;99.90
21244;DHT22;10780;50.942;4.028;2022-11-20T04:54:38;7.00;99.90
21244;DHT22;10780;50.942;4.028;2022-11-20T04:57:03;7.00;99.90
21244;DHT22;10780;50.942;4.028;2022-11-20T04:59:29;7.00;99.90
21244;DHT22;10780;50.942;4.028;2022-11-20T05:01:54;7.00;99.90
21244;DHT22;10780;50.942;4.028;2022-11-20T05:04:20;7.00;99.90
21244;DHT22;10780;50.942;4.028;2022-11-20T05:06:45;7.00;99.90
21244;DHT22;10780;50.942;4.028;2022-11-20T05:09:12;7.10;99.90
21244;DHT22;10780;50.942;4.028;2022-11-20T05:11:38;7.20;99.90
21244;DHT22;10780;50.942;4.028;2022-11-20T05:14:03;7.10;99.90
21244;DHT22;10780;50.942;4.028;2022-11-20T05:16:29;7.00;99.90
21244;DHT22;10780;50.942;4.028;2022-11-20T05:18:55;7.10;99.90
21244;DHT22;10780;50.942;4.028;2022-11-20T05:21:21;7.00;99.90
21244;DHT22;10780;50.942;4.028;2022-11-20T05:23:47;7.00;99.90
21244;DHT22;10780;50.942;4.028;2022-11-20T05:26:18;6.80;99.90
21244;DHT22;10780;50.942;4.028;2022-11-20T05:28:44;6.80;99.90
21244;DHT22;10780;50.942;4.028;2022-11-20T05:31:12;6.90;99.90
21244;DHT22;10780;50.942;4.028;2022-11-20T05:33:43;6.90;99.90
21244;DHT22;10780;50.942;4.028;2022-11-20T05:36:09;7.00;99.90
21244;DHT22;10780;50.942;4.028;2022-11-20T05:38:36;7.00;99.90
21244;DHT22;10780;50.942;4.028;2022-11-20T05:41:06;6.90;99.90
21244;DHT22;10780;50.942;4.028;2022-11-20T05:43:33;7.00;99.90
21244;DHT22;10780;50.942;4.028;2022-11-20T05:45:59;7.00;99.90
21244;DHT22;10780;50.942;4.028;2022-11-20T05:48:24;7.00;99.90
21244;DHT22;10780;50.942;4.028;2022-11-20T05:50:50;7.00;99.90
21244;DHT22;10780;50.942;4.028;2022-11-20T05:53:16;6.90;99.90
21244;DHT22;10780;50.942;4.028;2022-11-20T05:55:41;6.90;99.90
21244;DHT22;10780;50.942;4.028;2022-11-20T05:58:07;6.90;99.90
21244;DHT22;10780;50.942;4.028;2022-11-20T06:00:32;6.80;99.90
21244;DHT22;10780;50.942;4.028;2022-11-20T06:02:58;6.80;99.90
21244;DHT22;10780;50.942;4.028;2022-11-20T06:05:24;6.80;99.90
21244;DHT22;10780;50.942;4.028;2022-11-20T06:07:49;6.90;99.90
21244;DHT22;10780;50.942;4.028;2022-11-20T06:10:15;6.80;99.90
21244;DHT22;10780;50.942;4.028;2022-11-20T06:12:40;6.90;99.90
21244;DHT22;10780;50.942;4.028;2022-11-20T06:15:06;7.00;99.90
21244;DHT22;10780;50.942;4.028;2022-11-20T06:17:32;7.00;99.90
21244;DHT22;10780;50.942;4.028;2022-11-20T06:19:58;7.10;99.90
21244;DHT22;10780;50.942;4.028;2022-11-20T06:22:23;7.30;99.90
21244;DHT22;10780;50.942;4.028;2022-11-20T06:24:49;7.20;99.90
21244;DHT22;10780;50.942;4.028;2022-11-20T06:27:15;7.20;99.90
21244;DHT22;10780;50.942;4.028;2022-11-20T06:29:40;7.20;99.90
21244;DHT22;10780;50.942;4.028;2022-11-20T06:32:06;7.20;99.90
21244;DHT22;10780;50.942;4.028;2022-11-20T06:34:32;7.30;99.90
21244;DHT22;10780;50.942;4.028;2022-11-20T06:36:57;7.20;99.90
21244;DHT22;10780;50.942;4.028;2022-11-20T06:39:23;7.40;99.90
21244;DHT22;10780;50.942;4.028;2022-11-20T06:41:48;7.50;99.90
21244;DHT22;10780;50.942;4.028;2022-11-20T06:44:14;7.60;99.90
21244;DHT22;10780;50.942;4.028;2022-11-20T06:46:39;7.60;99.90
21244;DHT22;10780;50.942;4.028;2022-11-20T06:49:05;7.60;99.90
21244;DHT22;10780;50.942;4.028;2022-11-20T06:51:31;7.60;99.90
21244;DHT22;10780;50.942;4.028;2022-11-20T06:53:56;7.60;99.90
21244;DHT22;10780;50.942;4.028;2022-11-20T06:56:22;7.60;99.90
21244;DHT22;10780;50.942;4.028;2022-11-20T06:58:48;7.50;99.90
21244;DHT22;10780;50.942;4.028;2022-11-20T07:01:14;7.60;99.90
21244;DHT22;10780;50.942;4.028;2022-11-20T07:03:41;7.60;99.90
21244;DHT22;10780;50.942;4.028;2022-11-20T07:06:07;7.60;99.90
21244;DHT22;10780;50.942;4.028;2022-11-20T07:08:33;7.60;99.90
21244;DHT22;10780;50.942;4.028;2022-11-20T07:11:00;7.60;99.90
21244;DHT22;10780;50.942;4.028;2022-11-20T07:13:28;7.50;99.90
21244;DHT22;10780;50.942;4.028;2022-11-20T07:15:54;7.60;99.90
21244;DHT22;10780;50.942;4.028;2022-11-20T07:18:19;7.70;99.90
21244;DHT22;10780;50.942;4.028;2022-11-20T07:20:45;7.90;99.90
21244;DHT22;10780;50.942;4.028;2022-11-20T07:23:11;7.80;99.90
21244;DHT22;10780;50.942;4.028;2022-11-20T07:25:36;7.80;99.90
21244;DHT22;10780;50.942;4.028;2022-11-20T07:28:02;7.80;99.90
21244;DHT22;10780;50.942;4.028;2022-11-20T07:30:28;7.90;99.90
21244;DHT22;10780;50.942;4.028;2022-11-20T07:32:55;7.90;99.90
21244;DHT22;10780;50.942;4.028;2022-11-20T07:35:21;7.90;99.90
21244;DHT22;10780;50.942;4.028;2022-11-20T07:37:48;7.70;99.90
21244;DHT22;10780;50.942;4.028;2022-11-20T07:40:14;7.80;99.90
21244;DHT22;10780;50.942;4.028;2022-11-20T07:42:50;7.80;99.90
21244;DHT22;10780;50.942;4.028;2022-11-20T07:45:17;7.70;99.90
21244;DHT22;10780;50.942;4.028;2022-11-20T07:47:42;7.90;99.90
21244;DHT22;10780;50.942;4.028;2022-11-20T07:50:08;7.90;99.90
21244;DHT22;10780;50.942;4.028;2022-11-20T07:52:34;7.80;99.90
21244;DHT22;10780;50.942;4.028;2022-11-20T07:55:00;7.60;99.90
21244;DHT22;10780;50.942;4.028;2022-11-20T07:57:25;7.60;99.90
21244;DHT22;10780;50.942;4.028;2022-11-20T07:59:51;7.60;99.90
21244;DHT22;10780;50.942;4.028;2022-11-20T08:02:16;7.60;99.90
21244;DHT22;10780;50.942;4.028;2022-11-20T08:04:42;7.70;99.90
21244;DHT22;10780;50.942;4.028;2022-11-20T08:07:07;7.80;99.90
21244;DHT22;10780;50.942;4.028;2022-11-20T08:09:33;7.90;99.90
21244;DHT22;10780;50.942;4.028;2022-11-20T08:11:59;7.90;99.90
21244;DHT22;10780;50.942;4.028;2022-11-20T08:14:43;8.10;99.90
21244;DHT22;10780;50.942;4.028;2022-11-20T08:17:08;8.00;99.90
21244;DHT22;10780;50.942;4.028;2022-11-20T08:19:34;8.10;99.90
21244;DHT22;10780;50.942;4.028;2022-11-20T08:21:59;8.20;99.90
21244;DHT22;10780;50.942;4.028;2022-11-20T08:24:25;8.30;99.90
21244;DHT22;10780;50.942;4.028;2022-11-20T08:26:51;8.30;99.90
21244;DHT22;10780;50.942;4.028;2022-11-20T08:29:17;8.30;99.90
21244;DHT22;10780;50.942;4.028;2022-11-20T08:31:43;8.30;99.90
21244;DHT22;10780;50.942;4.028;2022-11-20T08:34:09;8.40;99.90
21244;DHT22;10780;50.942;4.028;2022-11-20T08:36:35;8.60;99.90
21244;DHT22;10780;50.942;4.028;2022-11-20T08:39:01;8.50;99.90
21244;DHT22;10780;50.942;4.028;2022-11-20T08:41:27;8.30;99.90
21244;DHT22;10780;50.942;4.028;2022-11-20T08:43:58;8.30;99.90
21244;DHT22;10780;50.942;4.028;2022-11-20T08:46:26;8.40;99.90
21244;DHT22;10780;50.942;4.028;2022-11-20T08:48:52;8.50;99.90
21244;DHT22;10780;50.942;4.028;2022-11-20T08:51:18;8.40;99.90
21244;DHT22;10780;50.942;4.028;2022-11-20T08:53:44;8.40;99.90
21244;DHT22;10780;50.942;4.028;2022-11-20T08:56:10;8.40;99.90
21244;DHT22;10780;50.942;4.028;2022-11-20T08:58:37;8.50;99.90
21244;DHT22;10780;50.942;4.028;2022-11-20T09:01:02;8.60;99.90
21244;DHT22;10780;50.942;4.028;2022-11-20T09:03:28;8.70;99.90
21244;DHT22;10780;50.942;4.028;2022-11-20T09:06:02;8.80;99.90
21244;DHT22;10780;50.942;4.028;2022-11-20T09:08:28;8.80;99.90
21244;DHT22;10780;50.942;4.028;2022-11-20T09:10:55;8.80;99.90
21244;DHT22;10780;50.942;4.028;2022-11-20T09:13:22;8.60;99.90
21244;DHT22;10780;50.942;4.028;2022-11-20T09:15:53;8.70;99.90
21244;DHT22;10780;50.942;4.028;2022-11-20T09:18:19;8.90;99.90
21244;DHT22;10780;50.942;4.028;2022-11-20T09:20:44;8.90;99.90
21244;DHT22;10780;50.942;4.028;2022-11-20T09:23:10;8.90;99.90
21244;DHT22;10780;50.942;4.028;2022-11-20T09:25:35;8.90;99.90
21244;DHT22;10780;50.942;4.028;2022-11-20T09:28:01;9.10;99.90
21244;DHT22;10780;50.942;4.028;2022-11-20T09:30:27;9.30;99.90
21244;DHT22;10780;50.942;4.028;2022-11-20T09:32:53;9.50;99.90
21244;DHT22;10780;50.942;4.028;2022-11-20T09:35:18;9.60;99.90
21244;DHT22;10780;50.942;4.028;2022-11-20T09:37:44;9.60;99.90
21244;DHT22;10780;50.942;4.028;2022-11-20T09:40:28;9.50;99.90
21244;DHT22;10780;50.942;4.028;2022-11-20T09:43:07;9.60;99.90
21244;DHT22;10780;50.942;4.028;2022-11-20T09:54:17;9.80;99.90
21244;DHT22;10780;50.942;4.028;2022-11-20T09:57:08;9.90;99.90
21244;DHT22;10780;50.942;4.028;2022-11-20T09:59:59;9.80;99.90
21244;DHT22;10780;50.942;4.028;2022-11-20T10:05:09;9.60;99.90
21244;DHT22;10780;50.942;4.028;2022-11-20T10:07:51;9.90;99.90
21244;DHT22;10780;50.942;4.028;2022-11-20T10:16:06;10.50;99.90
21244;DHT22;10780;50.942;4.028;2022-11-20T10:18:44;10.60;99.90
21244;DHT22;10780;50.942;4.028;2022-11-20T10:24:20;10.80;99.90
21244;DHT22;10780;50.942;4.028;2022-11-20T10:30:06;10.80;99.90
21244;DHT22;10780;50.942;4.028;2022-11-20T10:32:39;10.70;99.90
21244;DHT22;10780;50.942;4.028;2022-11-20T10:37:45;11.00;99.90
21244;DHT22;10780;50.942;4.028;2022-11-20T10:40:19;10.90;99.90
21244;DHT22;10780;50.942;4.028;2022-11-20T10:42:59;10.60;99.90
21244;DHT22;10780;50.942;4.028;2022-11-20T10:47:52;10.60;99.90
21244;DHT22;10780;50.942;4.028;2022-11-20T10:50:21;10.50;99.90
21244;DHT22;10780;50.942;4.028;2022-11-20T10:55:43;10.80;99.90
21244;DHT22;10780;50.942;4.028;2022-11-20T11:03:39;10.80;99.90
21244;DHT22;10780;50.942;4.028;2022-11-20T11:06:14;10.80;99.90
21244;DHT22;10780;50.942;4.028;2022-11-20T11:08:43;10.70;99.90
21244;DHT22;10780;50.942;4.028;2022-11-20T11:11:24;10.60;99.90
21244;DHT22;10780;50.942;4.028;2022-11-20T11:13:51;10.60;99.90
21244;DHT22;10780;50.942;4.028;2022-11-20T11:16:24;10.60;99.90
21244;DHT22;10780;50.942;4.028;2022-11-20T11:18:51;10.60;99.90
21244;DHT22;10780;50.942;4.028;2022-11-20T11:21:26;10.50;99.90
21244;DHT22;10780;50.942;4.028;2022-11-20T11:24:04;10.60;99.90
21244;DHT22;10780;50.942;4.028;2022-11-20T11:26:30;10.60;99.90
21244;DHT22;10780;50.942;4.028;2022-11-20T11:28:57;10.60;99.90
21244;DHT22;10780;50.942;4.028;2022-11-20T11:31:28;10.50;99.90
21244;DHT22;10780;50.942;4.028;2022-11-20T11:34:05;10.40;99.90
21244;DHT22;10780;50.942;4.028;2022-11-20T11:36:33;10.10;99.90
21244;DHT22;10780;50.942;4.028;2022-11-20T11:38:59;10.20;99.90
21244;DHT22;10780;50.942;4.028;2022-11-20T11:41:31;10.30;99.90
21244;DHT22;10780;50.942;4.028;2022-11-20T11:44:03;10.40;99.90
21244;DHT22;10780;50.942;4.028;2022-11-20T11:46:58;10.40;99.90
21244;DHT22;10780;50.942;4.028;2022-11-20T11:49:23;10.40;99.90
21244;DHT22;10780;50.942;4.028;2022-11-20T11:54:28;10.20;99.90
21244;DHT22;10780;50.942;4.028;2022-11-20T11:57:00;10.10;99.90
21244;DHT22;10780;50.942;4.028;2022-11-20T12:02:39;9.50;99.90
21244;DHT22;10780;50.942;4.028;2022-11-20T12:05:24;9.50;99.90
21244;DHT22;10780;50.942;4.028;2022-11-20T12:08:23;9.40;99.90
21244;DHT22;10780;50.942;4.028;2022-11-20T12:13:55;9.50;99.90
21244;DHT22;10780;50.942;4.028;2022-11-20T12:16:24;9.50;99.90
21244;DHT22;10780;50.942;4.028;2022-11-20T12:18:52;9.30;99.90
21244;DHT22;10780;50.942;4.028;2022-11-20T12:47:16;10.20;99.90
21244;DHT22;10780;50.942;4.028;2022-11-20T12:52:50;10.30;99.90
21244;DHT22;10780;50.942;4.028;2022-11-20T13:00:29;10.30;99.90
21244;DHT22;10780;50.942;4.028;2022-11-20T13:06:00;10.10;99.90
21244;DHT22;10780;50.942;4.028;2022-11-20T13:08:34;10.10;99.90
21244;DHT22;10780;50.942;4.028;2022-11-20T13:13:35;9.80;99.90
21244;DHT22;10780;50.942;4.028;2022-11-20T13:16:10;9.80;99.90
21244;DHT22;10780;50.942;4.028;2022-11-20T13:18:41;9.70;99.90
21244;DHT22;10780;50.942;4.028;2022-11-20T13:21:19;9.60;99.90
21244;DHT22;10780;50.942;4.028;2022-11-20T13:23:45;9.40;99.90
21244;DHT22;10780;50.942;4.028;2022-11-20T13:26:22;9.40;99.90
21244;DHT22;10780;50.942;4.028;2022-11-20T13:29:10;9.40;99.90
21244;DHT22;10780;50.942;4.028;2022-11-20T13:31:40;9.40;99.90
21244;DHT22;10780;50.942;4.028;2022-11-20T13:34:12;9.30;99.90
21244;DHT22;10780;50.942;4.028;2022-11-20T13:36:50;9.30;99.90
21244;DHT22;10780;50.942;4.028;2022-11-20T13:39:36;9.30;99.90
21244;DHT22;10780;50.942;4.028;2022-11-20T13:44:45;9.50;99.90
21244;DHT22;10780;50.942;4.028;2022-11-20T13:47:25;9.60;99.90
21244;DHT22;10780;50.942;4.028;2022-11-20T13:49:52;9.60;99.90
21244;DHT22;10780;50.942;4.028;2022-11-20T13:58:29;9.40;99.90
21244;DHT22;10780;50.942;4.028;2022-11-20T14:01:07;9.40;99.90
21244;DHT22;10780;50.942;4.028;2022-11-20T14:03:34;9.40;99.90
21244;DHT22;10780;50.942;4.028;2022-11-20T14:06:05;9.30;99.90
21244;DHT22;10780;50.942;4.028;2022-11-20T14:08:37;9.20;99.90
21244;DHT22;10780;50.942;4.028;2022-11-20T14:13:30;9.30;99.90
21244;DHT22;10780;50.942;4.028;2022-11-20T14:15:59;9.30;99.90
21244;DHT22;10780;50.942;4.028;2022-11-20T14:18:26;9.40;99.90
21244;DHT22;10780;50.942;4.028;2022-11-20T14:20:52;9.50;99.90
21244;DHT22;10780;50.942;4.028;2022-11-20T14:23:28;9.40;99.90
21244;DHT22;10780;50.942;4.028;2022-11-20T14:25:55;9.40;99.90
21244;DHT22;10780;50.942;4.028;2022-11-20T14:28:29;9.40;99.90
21244;DHT22;10780;50.942;4.028;2022-11-20T14:30:55;9.50;99.90
21244;DHT22;10780;50.942;4.028;2022-11-20T14:33:22;9.50;99.90
21244;DHT22;10780;50.942;4.028;2022-11-20T14:35:55;9.30;99.90
21244;DHT22;10780;50.942;4.028;2022-11-20T14:38:27;9.40;99.90
21244;DHT22;10780;50.942;4.028;2022-11-20T14:40:53;9.40;99.90
21244;DHT22;10780;50.942;4.028;2022-11-20T14:43:27;9.40;99.90
21244;DHT22;10780;50.942;4.028;2022-11-20T14:45:59;9.60;99.90
21244;DHT22;10780;50.942;4.028;2022-11-20T14:51:23;9.80;99.90
21244;DHT22;10780;50.942;4.028;2022-11-20T14:53:48;9.70;99.90
21244;DHT22;10780;50.942;4.028;2022-11-20T14:56:23;9.80;99.90
21244;DHT22;10780;50.942;4.028;2022-11-20T14:58:59;9.80;99.90
21244;DHT22;10780;50.942;4.028;2022-11-20T15:01:29;9.80;99.90
21244;DHT22;10780;50.942;4.028;2022-11-20T15:04:09;9.70;99.90
21244;DHT22;10780;50.942;4.028;2022-11-20T15:06:35;9.60;99.90
21244;DHT22;10780;50.942;4.028;2022-11-20T15:09:03;9.50;99.90
21244;DHT22;10780;50.942;4.028;2022-11-20T15:11:33;9.60;99.90
21244;DHT22;10780;50.942;4.028;2022-11-20T15:14:03;9.60;99.90
21244;DHT22;10780;50.942;4.028;2022-11-20T15:16:30;9.60;99.90
21244;DHT22;10780;50.942;4.028;2022-11-20T15:18:56;9.50;99.90
21244;DHT22;10780;50.942;4.028;2022-11-20T15:21:22;9.40;99.90
21244;DHT22;10780;50.942;4.028;2022-11-20T15:23:48;9.40;99.90
21244;DHT22;10780;50.942;4.028;2022-11-20T15:26:25;9.30;99.90
21244;DHT22;10780;50.942;4.028;2022-11-20T15:28:52;9.30;99.90
21244;DHT22;10780;50.942;4.028;2022-11-20T15:31:20;9.20;99.90
21244;DHT22;10780;50.942;4.028;2022-11-20T15:33:46;9.20;99.90
21244;DHT22;10780;50.942;4.028;2022-11-20T15:36:12;9.20;99.90
21244;DHT22;10780;50.942;4.028;2022-11-20T15:38:38;9.20;99.90
21244;DHT22;10780;50.942;4.028;2022-11-20T15:41:03;9.20;99.90
21244;DHT22;10780;50.942;4.028;2022-11-20T15:43:29;9.20;99.90
21244;DHT22;10780;50.942;4.028;2022-11-20T15:46:26;9.30;99.90
21244;DHT22;10780;50.942;4.028;2022-11-20T15:48:54;9.20;99.90
21244;DHT22;10780;50.942;4.028;2022-11-20T15:51:30;9.20;99.90
21244;DHT22;10780;50.942;4.028;2022-11-20T15:53:57;9.30;99.90
21244;DHT22;10780;50.942;4.028;2022-11-20T15:56:24;9.40;99.90
21244;DHT22;10780;50.942;4.028;2022-11-20T15:58:49;9.40;99.90
21244;DHT22;10780;50.942;4.028;2022-11-20T16:01:17;9.40;99.90
21244;DHT22;10780;50.942;4.028;2022-11-20T16:03:43;9.40;99.90
21244;DHT22;10780;50.942;4.028;2022-11-20T16:06:09;9.30;99.90
21244;DHT22;10780;50.942;4.028;2022-11-20T16:08:35;9.20;99.90
21244;DHT22;10780;50.942;4.028;2022-11-20T16:11:00;9.20;99.90
21244;DHT22;10780;50.942;4.028;2022-11-20T16:13:26;9.10;99.90
21244;DHT22;10780;50.942;4.028;2022-11-20T16:16:23;9.10;99.90
21244;DHT22;10780;50.942;4.028;2022-11-20T16:18:52;9.00;99.90
21244;DHT22;10780;50.942;4.028;2022-11-20T16:21:17;9.00;99.90
21244;DHT22;10780;50.942;4.028;2022-11-20T16:23:43;8.90;99.90
21244;DHT22;10780;50.942;4.028;2022-11-20T16:26:10;8.90;99.90
21244;DHT22;10780;50.942;4.028;2022-11-20T16:28:36;8.90;99.90
21244;DHT22;10780;50.942;4.028;2022-11-20T16:31:16;8.90;99.90
21244;DHT22;10780;50.942;4.028;2022-11-20T16:33:42;9.10;99.90
21244;DHT22;10780;50.942;4.028;2022-11-20T16:36:13;9.20;99.90
21244;DHT22;10780;50.942;4.028;2022-11-20T16:38:39;9.20;99.90
21244;DHT22;10780;50.942;4.028;2022-11-20T16:41:05;9.10;99.90
21244;DHT22;10780;50.942;4.028;2022-11-20T16:43:31;8.90;99.90
21244;DHT22;10780;50.942;4.028;2022-11-20T16:45:57;8.90;99.90
21244;DHT22;10780;50.942;4.028;2022-11-20T16:48:23;8.80;99.90
21244;DHT22;10780;50.942;4.028;2022-11-20T16:50:52;8.90;99.90
21244;DHT22;10780;50.942;4.028;2022-11-20T16:53:19;8.80;99.90
21244;DHT22;10780;50.942;4.028;2022-11-20T16:55:45;8.80;99.90
21244;DHT22;10780;50.942;4.028;2022-11-20T16:58:12;8.80;99.90
21244;DHT22;10780;50.942;4.028;2022-11-20T17:00:38;8.90;99.90
21244;DHT22;10780;50.942;4.028;2022-11-20T17:03:05;9.00;99.90
21244;DHT22;10780;50.942;4.028;2022-11-20T17:05:31;9.10;99.90
21244;DHT22;10780;50.942;4.028;2022-11-20T17:07:57;9.00;99.90
21244;DHT22;10780;50.942;4.028;2022-11-20T17:10:23;9.00;99.90
21244;DHT22;10780;50.942;4.028;2022-11-20T17:12:48;9.00;99.90
21244;DHT22;10780;50.942;4.028;2022-11-20T17:15:14;9.00;99.90
21244;DHT22;10780;50.942;4.028;2022-11-20T17:17:40;9.00;99.90
21244;DHT22;10780;50.942;4.028;2022-11-20T17:20:05;9.00;99.90
21244;DHT22;10780;50.942;4.028;2022-11-20T17:22:31;9.00;99.90
21244;DHT22;10780;50.942;4.028;2022-11-20T17:24:57;9.00;99.90
21244;DHT22;10780;50.942;4.028;2022-11-20T17:27:22;8.90;99.90
21244;DHT22;10780;50.942;4.028;2022-11-20T17:29:48;8.80;99.90
21244;DHT22;10780;50.942;4.028;2022-11-20T17:32:14;8.80;99.90
21244;DHT22;10780;50.942;4.028;2022-11-20T17:34:39;8.80;99.90